createdAt,value
2022-09-09T00:02:22.608Z,75.60
2022-09-09T00:05:01.350Z,75.65
2022-09-09T00:07:42.147Z,75.76
2022-09-09T00:10:20.270Z,75.71
2022-09-09T00:12:57.508Z,75.74
2022-09-09T00:15:29.811Z,75.44
2022-09-09T00:18:05.698Z,74.92
2022-09-09T00:20:42.806Z,74.51
2022-09-09T00:23:16.617Z,74.08
2022-09-09T00:25:52.550Z,73.68
2022-09-09T00:28:22.325Z,73.57
2022-09-09T00:30:50.359Z,72.72
2022-09-09T00:33:22.448Z,72.49
2022-09-09T00:35:55.386Z,72.09
2022-09-09T00:38:30.411Z,71.46
2022-09-09T00:41:03.804Z,71.61
2022-09-09T00:43:33.237Z,71.32
2022-09-09T00:46:22.187Z,70.54
2022-09-09T00:48:59.566Z,70.30
2022-09-09T00:51:38.869Z,69.60
2022-09-09T00:54:20.901Z,68.62
2022-09-09T00:56:59.234Z,68.31
2022-09-09T00:59:37.772Z,67.84
2022-09-09T01:02:15.888Z,67.51
2022-09-09T01:04:45.612Z,66.96
2022-09-09T01:07:19.166Z,66.52
2022-09-09T01:09:59.323Z,66.05
2022-09-09T01:12:37.768Z,66.22
2022-09-09T01:15:13.047Z,65.89
2022-09-09T01:17:50.963Z,66.01
2022-09-09T01:20:23.641Z,65.92
2022-09-09T01:23:06.769Z,65.97
2022-09-09T01:26:15.709Z,65.47
2022-09-09T01:28:46.934Z,65.65
2022-09-09T01:31:19.873Z,65.90
2022-09-09T01:33:48.227Z,66.12
2022-09-09T01:36:24.173Z,66.20
2022-09-09T01:38:52.108Z,66.03
2022-09-09T01:41:21.730Z,65.79
2022-09-09T01:43:50.478Z,66.22
2022-09-09T01:46:19.522Z,66.28
2022-09-09T01:48:47.781Z,66.00
2022-09-09T01:51:15.721Z,66.03
2022-09-09T01:53:45.625Z,66.22
2022-09-09T01:56:27.947Z,66.17
2022-09-09T01:59:08.676Z,66.54
2022-09-09T02:01:53.182Z,66.62
2022-09-09T02:04:33.781Z,66.81
2022-09-09T02:07:02.657Z,66.60
2022-09-09T02:09:32.724Z,66.70
2022-09-09T02:12:08.548Z,67.03
2022-09-09T02:14:41.769Z,66.99
2022-09-09T02:17:12.121Z,66.96
2022-09-09T02:19:46.354Z,67.31
2022-09-09T02:22:14.533Z,67.20
2022-09-09T02:24:43.161Z,67.74
2022-09-09T02:27:13.374Z,67.58
2022-09-09T02:29:43.773Z,67.85
2022-09-09T02:32:16.883Z,67.73
2022-09-09T02:34:50.071Z,68.04
2022-09-09T02:37:21.077Z,68.19
2022-09-09T02:39:49.158Z,67.67
2022-09-09T02:42:20.222Z,68.09
2022-09-09T02:44:48.281Z,67.91
2022-09-09T02:47:29.801Z,68.41
2022-09-09T02:50:08.146Z,68.41
2022-09-09T02:52:46.190Z,68.65
2022-09-09T02:55:22.483Z,68.57
2022-09-09T02:57:53.926Z,68.32
2022-09-09T03:00:26.549Z,68.35
2022-09-09T03:02:55.705Z,68.20
2022-09-09T03:05:23.709Z,68.29
2022-09-09T03:07:51.626Z,68.38
2022-09-09T03:10:20.506Z,68.29
2022-09-09T03:12:48.322Z,68.30
2022-09-09T03:15:17.881Z,68.13
2022-09-09T03:17:46.095Z,68.38
2022-09-09T03:20:13.966Z,68.21
2022-09-09T03:22:43.083Z,68.23
2022-09-09T03:25:11.261Z,68.23
2022-09-09T03:27:39.074Z,68.27
2022-09-09T03:30:08.064Z,68.21
2022-09-09T03:32:37.808Z,68.31
2022-09-09T03:35:06.349Z,68.65
2022-09-09T03:37:34.156Z,68.39
2022-09-09T03:40:02.200Z,68.53
2022-09-09T03:42:31.038Z,68.73
2022-09-09T03:45:00.418Z,68.73
2022-09-09T03:47:28.588Z,68.92
2022-09-09T03:49:57.869Z,68.83
2022-09-09T03:52:27.408Z,69.38
2022-09-09T03:54:57.769Z,69.63
2022-09-09T03:57:25.598Z,69.41
2022-09-09T03:59:53.419Z,69.76
2022-09-09T04:02:22.622Z,69.64
2022-09-09T04:04:50.507Z,69.62
2022-09-09T04:07:19.673Z,70.18
2022-09-09T04:09:47.639Z,69.71
2022-09-09T04:12:15.469Z,70.06
2022-09-09T04:14:43.295Z,69.93
2022-09-09T04:17:11.485Z,69.76
2022-09-09T04:19:39.320Z,69.68
2022-09-09T04:22:07.165Z,70.14
2022-09-09T04:24:36.965Z,69.86
2022-09-09T04:27:05.005Z,69.77
2022-09-09T04:29:32.831Z,69.77
2022-09-09T04:32:00.906Z,69.47
2022-09-09T04:34:29.417Z,69.36
2022-09-09T04:36:57.974Z,69.31
2022-09-09T04:39:26.145Z,69.12
2022-09-09T04:41:55.293Z,69.29
2022-09-09T04:44:23.131Z,68.96
2022-09-09T04:46:51.143Z,68.85
2022-09-09T04:49:18.950Z,68.84
2022-09-09T04:51:48.038Z,68.54
2022-09-09T04:54:16.504Z,68.48
2022-09-09T04:56:44.440Z,68.20
2022-09-09T04:59:13.593Z,68.16
2022-09-09T05:01:41.978Z,68.16
2022-09-09T05:04:10.010Z,67.82
2022-09-09T05:06:38.324Z,67.64
2022-09-09T05:09:06.358Z,67.59
2022-09-09T05:11:37.036Z,67.30
2022-09-09T05:14:04.974Z,67.80
2022-09-09T05:16:34.699Z,67.22
2022-09-09T05:19:04.261Z,67.07
2022-09-09T05:21:32.478Z,66.87
2022-09-09T05:24:01.697Z,66.28
2022-09-09T05:26:30.460Z,65.67
2022-09-09T05:29:00.096Z,65.21
2022-09-09T05:31:29.540Z,64.44
2022-09-09T05:34:00.000Z,63.83
2022-09-09T05:36:27.865Z,63.62
2022-09-09T05:38:55.901Z,62.82
2022-09-09T05:41:24.118Z,62.11
2022-09-09T05:43:52.027Z,61.33
2022-09-09T05:46:21.698Z,60.67
2022-09-09T05:48:51.699Z,60.66
2022-09-09T05:51:23.160Z,59.80
2022-09-09T05:53:51.998Z,59.64
2022-09-09T05:56:22.888Z,59.48
2022-09-09T05:58:52.892Z,59.26
2022-09-09T06:01:22.320Z,59.05
2022-09-09T06:03:51.796Z,59.08
2022-09-09T06:06:22.999Z,59.01
2022-09-09T06:08:53.975Z,58.43
2022-09-09T06:11:23.969Z,58.05
2022-09-09T06:13:54.877Z,57.95
2022-09-09T06:16:25.288Z,57.35
2022-09-09T06:18:55.292Z,57.25
2022-09-09T06:21:25.947Z,56.67
2022-09-09T06:23:56.737Z,56.51
2022-09-09T06:26:29.570Z,56.38
2022-09-09T06:28:58.990Z,56.04
2022-09-09T06:31:31.621Z,55.80
2022-09-09T06:34:00.971Z,55.55
2022-09-09T06:36:32.313Z,55.10
2022-09-09T06:39:00.856Z,55.20
2022-09-09T06:41:31.212Z,54.97
2022-09-09T06:43:59.501Z,55.10
2022-09-09T06:46:29.395Z,55.16
2022-09-09T06:48:58.488Z,55.01
2022-09-09T06:51:28.332Z,54.37
2022-09-09T06:53:59.510Z,54.03
2022-09-09T06:56:29.311Z,54.67
2022-09-09T06:58:59.494Z,55.06
2022-09-09T07:01:29.225Z,53.60
2022-09-09T07:03:59.869Z,53.74
2022-09-09T07:06:29.100Z,53.21
2022-09-09T07:09:00.092Z,52.26
2022-09-09T07:11:29.889Z,50.84
2022-09-09T07:14:00.006Z,49.85
2022-09-09T07:16:30.541Z,50.80
2022-09-09T07:18:58.899Z,50.38
2022-09-09T07:21:28.437Z,49.85
2022-09-09T07:23:58.483Z,49.27
2022-09-09T07:26:28.236Z,48.53
2022-09-09T07:28:58.196Z,47.01
2022-09-09T07:31:28.895Z,45.90
2022-09-09T07:33:56.760Z,45.89
2022-09-09T07:36:31.234Z,45.98
2022-09-09T07:39:04.263Z,45.22
2022-09-09T07:41:35.383Z,45.82
2022-09-09T07:44:07.706Z,45.28
2022-09-09T07:46:36.357Z,45.16
2022-09-09T07:49:04.752Z,44.54
2022-09-09T07:51:35.158Z,43.77
2022-09-09T07:54:06.592Z,43.02
2022-09-09T07:56:34.936Z,42.80
2022-09-09T07:59:05.279Z,42.06
2022-09-09T08:01:38.323Z,41.63
2022-09-09T08:04:08.299Z,42.26
2022-09-09T08:06:38.908Z,43.12
2022-09-09T08:09:10.219Z,44.00
2022-09-09T08:11:39.549Z,44.57
2022-09-09T08:14:08.442Z,44.18
2022-09-09T08:16:38.632Z,43.67
2022-09-09T08:19:08.468Z,43.76
2022-09-09T08:21:39.396Z,44.56
2022-09-09T08:24:12.738Z,45.16
2022-09-09T08:26:42.703Z,45.41
2022-09-09T08:29:12.601Z,46.06
2022-09-09T08:31:43.648Z,46.38
2022-09-09T08:34:11.849Z,46.14
2022-09-09T08:36:41.761Z,46.96
2022-09-09T08:39:12.861Z,47.39
2022-09-09T08:42:02.345Z,45.20
2022-09-09T08:44:45.570Z,43.98
2022-09-09T08:47:34.081Z,43.74
2022-09-09T08:50:18.705Z,44.01
2022-09-09T08:52:54.801Z,44.23
2022-09-09T08:55:29.986Z,44.58
2022-09-09T08:58:02.031Z,45.21
2022-09-09T09:00:37.748Z,45.65
2022-09-09T09:03:13.835Z,46.92
2022-09-09T09:05:50.109Z,45.84
2022-09-09T09:08:29.740Z,44.55
2022-09-09T09:11:01.532Z,44.30
2022-09-09T09:13:40.472Z,44.92
2022-09-09T09:16:21.598Z,44.82
2022-09-09T09:18:49.541Z,44.24
2022-09-09T09:21:22.745Z,43.67
2022-09-09T09:23:58.047Z,43.51
2022-09-09T09:26:34.203Z,43.99
2022-09-09T09:29:10.570Z,44.11
2022-09-09T09:31:38.698Z,44.44
2022-09-09T09:34:06.877Z,45.11
2022-09-09T09:36:43.626Z,44.74
2022-09-09T09:42:11.950Z,43.45
2022-09-09T09:44:40.006Z,43.35
2022-09-09T09:47:10.318Z,43.08
2022-09-09T09:49:38.520Z,43.31
2022-09-09T09:52:07.627Z,43.26
2022-09-09T09:54:39.881Z,43.28
2022-09-09T09:57:17.176Z,42.70
2022-09-09T09:59:45.623Z,42.89
2022-09-09T10:02:19.235Z,43.59
2022-09-09T10:04:47.878Z,43.57
2022-09-09T10:07:21.109Z,43.72
2022-09-09T10:09:55.355Z,43.55
2022-09-09T10:12:37.217Z,43.34
2022-09-09T10:15:17.071Z,43.71
2022-09-09T10:17:56.324Z,43.52
2022-09-09T10:20:36.937Z,43.55
2022-09-09T10:23:19.087Z,43.02
2022-09-09T10:26:02.333Z,42.67
2022-09-09T10:28:56.605Z,43.18
2022-09-09T10:31:32.109Z,43.13
2022-09-09T10:34:09.095Z,41.31
2022-09-09T10:36:45.112Z,40.08
2022-09-09T10:39:27.986Z,39.49
2022-09-09T10:42:06.205Z,38.79
2022-09-09T10:44:57.765Z,38.15
2022-09-09T10:47:50.582Z,37.78
2022-09-09T10:51:00.011Z,37.94
2022-09-09T10:53:34.743Z,38.64
2022-09-09T10:56:08.648Z,39.58
2022-09-09T10:58:43.863Z,39.64
2022-09-09T11:01:19.587Z,39.71
2022-09-09T11:03:54.128Z,39.88
2022-09-09T11:06:26.563Z,39.63
2022-09-09T11:08:57.048Z,39.26
2022-09-09T11:11:32.033Z,38.65
2022-09-09T11:14:04.647Z,38.30
2022-09-09T11:16:42.926Z,36.77
2022-09-09T11:19:19.160Z,36.60
2022-09-09T11:21:48.708Z,36.57
2022-09-09T11:24:20.691Z,36.59
2022-09-09T11:26:53.634Z,36.59
2022-09-09T11:29:48.813Z,36.79
2022-09-09T11:32:35.264Z,36.37
2022-09-09T11:35:19.788Z,36.21
2022-09-09T11:38:06.110Z,36.02
2022-09-09T11:40:36.137Z,35.99
2022-09-09T11:43:07.041Z,35.12
2022-09-09T11:45:37.788Z,35.78
2022-09-09T11:48:08.046Z,36.01
2022-09-09T11:50:37.778Z,35.08
2022-09-09T11:53:25.368Z,35.03
2022-09-09T11:56:08.177Z,34.80
2022-09-09T11:58:41.936Z,35.11
2022-09-09T12:01:32.140Z,34.86
2022-09-09T12:04:33.325Z,34.81
2022-09-09T12:07:04.789Z,35.01
2022-09-09T12:09:41.285Z,35.42
2022-09-09T12:12:24.234Z,35.07
2022-09-09T12:15:01.891Z,34.49
2022-09-09T12:17:32.505Z,34.56
2022-09-09T12:20:11.067Z,34.56
2022-09-09T12:22:55.761Z,34.99
2022-09-09T12:25:32.962Z,35.74
2022-09-09T12:28:08.912Z,35.96
2022-09-09T12:30:43.332Z,35.90
2022-09-09T12:33:15.086Z,36.10
2022-09-09T12:35:48.448Z,35.49
2022-09-09T12:38:20.834Z,35.74
2022-09-09T12:40:58.325Z,35.85
2022-09-09T12:43:28.511Z,34.58
2022-09-09T12:46:01.759Z,34.13
2022-09-09T12:48:36.027Z,33.05
2022-09-09T12:51:23.314Z,33.42
2022-09-09T12:53:51.451Z,32.79
2022-09-09T12:56:27.492Z,31.79
2022-09-09T12:58:57.596Z,31.92
2022-09-09T13:01:27.985Z,32.80
2022-09-09T13:03:56.790Z,33.28
2022-09-09T13:06:29.258Z,32.97
2022-09-09T13:09:00.004Z,33.16
2022-09-09T13:11:31.887Z,33.97
2022-09-09T13:14:01.501Z,34.89
2022-09-09T13:16:33.864Z,34.75
2022-09-09T13:19:09.631Z,34.93
2022-09-09T13:21:41.552Z,35.17
2022-09-09T13:24:30.506Z,34.23
2022-09-09T13:26:59.715Z,33.59
2022-09-09T13:29:27.665Z,33.86
2022-09-09T13:31:56.724Z,34.69
2022-09-09T13:34:32.562Z,34.00
2022-09-09T13:37:04.545Z,32.82
2022-09-09T13:39:32.645Z,32.45
2022-09-09T13:42:00.655Z,32.12
2022-09-09T13:44:30.824Z,32.10
2022-09-09T13:47:08.139Z,31.85
2022-09-09T13:49:38.296Z,31.14
2022-09-09T13:52:12.632Z,30.54
2022-09-09T13:54:40.731Z,30.93
2022-09-09T13:57:17.493Z,31.19
2022-09-09T14:00:03.600Z,31.40
2022-09-09T14:02:32.763Z,30.88
2022-09-09T14:05:00.651Z,31.25
2022-09-09T14:07:30.051Z,31.63
2022-09-09T14:09:58.311Z,31.38
2022-09-09T14:12:26.431Z,32.17
2022-09-09T14:14:54.289Z,31.64
2022-09-09T14:17:23.343Z,32.58
2022-09-09T14:19:51.581Z,32.68
2022-09-09T14:22:19.523Z,32.41
2022-09-09T14:24:49.261Z,32.92
2022-09-09T14:27:19.715Z,33.23
2022-09-09T14:29:47.535Z,34.39
2022-09-09T14:32:15.645Z,34.85
2022-09-09T14:34:43.505Z,34.10
2022-09-09T14:37:11.330Z,34.22
2022-09-09T14:39:39.358Z,34.33
2022-09-09T14:42:12.062Z,33.35
2022-09-09T14:44:40.366Z,32.66
2022-09-09T14:47:09.021Z,32.59
2022-09-09T14:49:37.429Z,32.42
2022-09-09T14:52:06.666Z,31.79
2022-09-09T14:54:34.587Z,31.69
2022-09-09T14:57:02.410Z,31.50
2022-09-09T14:59:31.853Z,30.78
2022-09-09T15:02:01.741Z,30.70
2022-09-09T15:04:29.713Z,30.12
2022-09-09T15:06:57.688Z,30.56
2022-09-09T15:09:25.494Z,31.42
2022-09-09T15:11:53.339Z,32.63
2022-09-09T15:14:22.585Z,33.24
2022-09-09T15:16:54.598Z,32.88
2022-09-09T15:19:22.610Z,33.82
2022-09-09T15:21:50.514Z,34.22
2022-09-09T15:24:18.331Z,34.50
2022-09-09T15:26:46.503Z,35.72
2022-09-09T15:29:14.656Z,36.65
2022-09-09T15:31:42.445Z,37.73
2022-09-09T15:34:12.237Z,38.62
2022-09-09T15:36:41.533Z,39.57
2022-09-09T15:39:13.826Z,40.41
2022-09-09T15:41:41.880Z,40.94
2022-09-09T15:44:11.333Z,41.58
2022-09-09T15:46:41.528Z,42.00
2022-09-09T15:49:12.283Z,42.70
2022-09-09T15:51:43.697Z,43.25
2022-09-09T15:54:14.332Z,43.48
2022-09-09T15:56:43.069Z,43.48
2022-09-09T15:59:12.383Z,44.07
2022-09-09T16:01:41.923Z,44.40
2022-09-09T16:04:11.549Z,44.77
2022-09-09T16:06:40.102Z,45.20
2022-09-09T16:09:11.303Z,45.66
2022-09-09T16:11:39.983Z,45.94
2022-09-09T16:14:08.475Z,46.37
2022-09-09T16:16:37.672Z,46.94
2022-09-09T16:19:08.105Z,47.08
2022-09-09T16:21:40.758Z,47.25
2022-09-09T16:24:10.920Z,47.36
2022-09-09T16:26:40.785Z,47.53
2022-09-09T16:29:09.869Z,47.81
2022-09-09T16:31:38.636Z,48.04
2022-09-09T16:34:06.745Z,48.24
2022-09-09T16:36:38.049Z,48.53
2022-09-09T16:39:07.713Z,48.64
2022-09-09T16:41:35.849Z,48.87
2022-09-09T16:44:05.635Z,49.02
2022-09-09T16:46:36.531Z,49.55
2022-09-09T16:49:06.502Z,49.65
2022-09-09T16:51:35.991Z,49.74
2022-09-09T16:54:08.310Z,50.09
2022-09-09T16:56:38.958Z,50.33
2022-09-09T16:59:08.793Z,50.38
2022-09-09T17:01:39.136Z,50.64
2022-09-09T17:04:10.136Z,50.78
2022-09-09T17:06:39.246Z,50.99
2022-09-09T17:09:10.845Z,51.26
2022-09-09T17:11:39.756Z,51.37
2022-09-09T17:14:10.458Z,51.60
2022-09-09T17:16:40.603Z,51.83
2022-09-09T17:19:10.457Z,52.05
2022-09-09T17:21:54.629Z,52.43
2022-09-09T17:24:30.156Z,52.34
2022-09-09T17:26:58.915Z,52.57
2022-09-09T17:29:26.814Z,52.93
2022-09-09T17:31:55.202Z,53.27
2022-09-09T17:34:23.872Z,53.29
2022-09-09T17:36:51.825Z,53.45
2022-09-09T17:39:19.781Z,53.88
2022-09-09T17:41:49.697Z,54.14
2022-09-09T17:44:18.017Z,54.01
2022-09-09T17:46:46.370Z,54.48
2022-09-09T17:49:16.894Z,54.36
2022-09-09T17:51:46.329Z,54.97
2022-09-09T17:54:16.440Z,55.07
2022-09-09T17:56:45.172Z,55.23
2022-09-09T17:59:17.638Z,55.56
2022-09-09T18:01:47.249Z,55.73
2022-09-09T18:04:17.000Z,56.13
2022-09-09T18:06:47.963Z,56.53
2022-09-09T18:09:18.206Z,56.48
2022-09-09T18:11:49.329Z,57.01
2022-09-09T18:14:21.711Z,57.48
2022-09-09T18:16:50.287Z,57.29
2022-09-09T18:19:20.608Z,57.67
2022-09-09T18:21:49.323Z,58.01
2022-09-09T18:24:19.370Z,58.63
2022-09-09T18:26:48.215Z,58.73
2022-09-09T18:29:20.247Z,59.02
2022-09-09T18:31:48.357Z,59.33
2022-09-09T18:34:18.217Z,59.83
2022-09-09T18:36:48.086Z,59.85
2022-09-09T18:39:17.696Z,60.17
2022-09-09T18:41:47.589Z,60.56
2022-09-09T18:44:20.832Z,61.09
2022-09-09T18:46:50.158Z,60.80
2022-09-09T18:49:18.009Z,61.08
2022-09-09T18:51:47.011Z,61.63
2022-09-09T18:54:16.622Z,61.61
2022-09-09T18:56:45.209Z,61.99
2022-09-09T18:59:16.104Z,62.21
2022-09-09T19:01:45.740Z,62.27
2022-09-09T19:04:13.845Z,62.75
2022-09-09T19:06:43.789Z,62.92
2022-09-09T19:09:12.452Z,63.06
2022-09-09T19:11:41.241Z,63.56
2022-09-09T19:14:12.400Z,63.84
2022-09-09T19:16:41.569Z,64.00
2022-09-09T19:19:14.645Z,64.12
2022-09-09T19:21:44.908Z,64.60
2022-09-09T19:24:16.286Z,64.61
2022-09-09T19:26:46.714Z,64.62
2022-09-09T19:29:16.342Z,64.90
2022-09-09T19:32:09.475Z,64.91
2022-09-09T19:34:35.093Z,65.25
2022-09-09T19:37:03.037Z,65.28
2022-09-09T19:39:32.120Z,65.67
2022-09-09T19:41:59.985Z,65.82
2022-09-09T19:44:27.997Z,65.92
2022-09-09T19:46:55.967Z,65.85
2022-09-09T19:49:24.101Z,66.11
2022-09-09T19:51:55.292Z,66.74
2022-09-09T19:54:23.105Z,66.53
2022-09-09T19:56:50.943Z,66.90
2022-09-09T19:59:19.027Z,66.79
2022-09-09T20:01:47.036Z,67.22
2022-09-09T20:04:17.339Z,66.88
2022-09-09T20:06:46.234Z,67.28
2022-09-09T20:09:17.528Z,67.55
2022-09-09T20:11:47.508Z,67.42
2022-09-09T20:14:16.191Z,67.66
2022-09-09T20:16:45.767Z,68.23
2022-09-09T20:19:16.252Z,68.06
2022-09-09T20:21:47.880Z,68.57
2022-09-09T20:24:19.805Z,68.77
2022-09-09T20:26:49.016Z,68.71
2022-09-09T20:29:19.115Z,69.41
2022-09-09T20:31:48.147Z,69.42
2022-09-09T20:34:18.609Z,69.64
2022-09-09T20:36:48.504Z,69.92
2022-09-09T20:39:20.108Z,70.23
2022-09-09T20:41:48.307Z,70.35
2022-09-09T20:44:18.434Z,70.79
2022-09-09T20:46:49.061Z,71.00
2022-09-09T20:49:18.418Z,71.27
2022-09-09T20:51:47.708Z,71.50
2022-09-09T20:54:19.719Z,71.74
2022-09-09T20:56:49.745Z,71.95
2022-09-09T20:59:19.822Z,71.95
2022-09-09T21:01:48.798Z,72.49
2022-09-09T21:04:18.700Z,72.67
2022-09-09T21:06:47.307Z,72.68
2022-09-09T21:09:15.681Z,73.21
2022-09-09T21:11:45.047Z,73.25
2022-09-09T21:14:13.142Z,73.80
2022-09-09T21:16:41.124Z,74.11
2022-09-09T21:19:09.544Z,74.03
2022-09-09T21:21:37.438Z,74.52
2022-09-09T21:24:06.050Z,74.62
2022-09-09T21:26:35.578Z,75.05
2022-09-09T21:29:04.885Z,75.58
2022-09-09T21:31:33.505Z,75.56
2022-09-09T21:34:01.661Z,75.68
2022-09-09T21:36:29.603Z,75.89
2022-09-09T21:38:59.359Z,76.22
2022-09-09T21:41:27.409Z,76.35
2022-09-09T21:43:56.469Z,76.82
2022-09-09T21:46:28.256Z,77.12
2022-09-09T21:48:57.165Z,77.15
2022-09-09T21:51:25.588Z,77.27
2022-09-09T21:53:56.674Z,77.50
2022-09-09T21:56:25.678Z,77.58
2022-09-09T21:58:56.913Z,77.87
2022-09-09T22:01:27.219Z,77.90
2022-09-09T22:03:55.145Z,78.47
2022-09-09T22:06:22.961Z,78.86
2022-09-09T22:08:51.058Z,79.14
2022-09-09T22:11:21.388Z,79.33
2022-09-09T22:13:49.527Z,79.35
2022-09-09T22:16:20.191Z,79.68
2022-09-09T22:18:53.560Z,80.05
2022-09-09T22:21:22.157Z,80.02
2022-09-09T22:23:54.209Z,80.20
2022-09-09T22:26:22.552Z,80.18
2022-09-09T22:28:50.937Z,80.53
2022-09-09T22:31:18.928Z,80.84
2022-09-09T22:33:46.887Z,80.96
2022-09-09T22:36:16.182Z,81.54
2022-09-09T22:38:43.970Z,81.37
2022-09-09T22:41:12.217Z,81.75
2022-09-09T22:43:43.666Z,82.19
2022-09-09T22:46:12.445Z,82.31
2022-09-09T22:48:43.661Z,82.51
2022-09-09T22:51:16.626Z,82.54
2022-09-09T22:53:46.878Z,82.66
2022-09-09T22:56:19.289Z,83.05
2022-09-09T22:58:56.933Z,83.69
2022-09-09T23:01:26.850Z,83.33
2022-09-09T23:03:55.707Z,83.35
2022-09-09T23:06:25.416Z,83.47
2022-09-09T23:08:56.921Z,83.69
2022-09-09T23:11:28.093Z,83.79
2022-09-09T23:14:00.294Z,84.05
2022-09-09T23:16:29.590Z,83.91
2022-09-09T23:18:57.497Z,84.00
2022-09-09T23:21:26.387Z,84.16
2022-09-09T23:23:57.554Z,84.19
2022-09-09T23:26:26.647Z,84.34
2022-09-09T23:28:58.474Z,84.60
2022-09-09T23:31:27.828Z,84.26
2022-09-09T23:33:58.122Z,84.25
2022-09-09T23:36:26.702Z,84.35
2022-09-09T23:38:56.325Z,84.29
2022-09-09T23:41:24.850Z,84.42
2022-09-09T23:43:54.298Z,84.53
2022-09-09T23:46:25.275Z,84.46
2022-09-09T23:48:53.205Z,84.54
2022-09-09T23:51:24.075Z,84.32
2022-09-09T23:53:53.917Z,84.73
2022-09-09T23:56:25.130Z,84.86
2022-09-09T23:58:53.211Z,84.90
